Time;durP1;ratioP1;P1;durP2;ratioP2;P2;SDS_P1;SDS_P2;PMS_P1;PMS_P2;Temp;Humidity;BMP_temperature;BMP_pressure;BME280_temperature;BME280_humidity;BME280_pressure;Samples;Min_cycle;Max_cycle;Signal;HPM_P1;HPM_P2
2022/02/03 00:04:34;;;;;;;31.60;16.10;;;;;;;0.49;81.03;98475.49;109055;1276;138337;-58
2022/02/03 00:07:06;;;;;;;31.50;15.00;;;;;;;0.48;81.00;98481.27;109063;1276;23397;-58
2022/02/03 00:26:31;;;;;;;31.80;16.10;;;;;;;0.55;80.98;98485.97;108185;1283;138521;-58
2022/02/03 00:29:00;;;;;;;32.00;15.20;;;;;;;0.55;81.01;98487.25;108214;1283;23858;-58
2022/02/03 00:31:42;;;;;;;26.10;13.60;;;;;;;0.54;80.91;98487.38;108425;1282;22566;-58
2022/02/03 00:34:26;;;;;;;27.20;14.70;;;;;;;0.55;80.86;98484.98;108278;1283;138756;-58
2022/02/03 00:50:43;;;;;;;31.10;14.80;;;;;;;0.58;80.97;98485.98;108928;1276;138536;-58
2022/02/03 00:53:14;;;;;;;27.60;14.90;;;;;;;0.56;80.98;98481.72;109077;1277;23408;-59
2022/02/03 00:55:46;;;;;;;26.90;15.70;;;;;;;0.56;81.23;98481.52;109061;1277;22464;-58
2022/02/03 00:58:17;;;;;;;29.70;16.00;;;;;;;0.56;81.11;98481.89;108916;1277;138080;-59
2022/02/03 01:00:58;;;;;;;30.00;16.10;;;;;;;0.57;81.00;98480.92;109091;1276;22494;-58
2022/02/03 01:03:28;;;;;;;25.90;15.30;;;;;;;0.58;80.94;98479.86;109067;1275;139813;-58
2022/02/03 01:06:03;;;;;;;33.80;17.20;;;;;;;0.58;81.15;98479.40;109090;1277;23191;-59
2022/02/03 01:08:31;;;;;;;26.90;15.00;;;;;;;0.59;80.98;98481.09;109068;1274;138219;-58
2022/02/03 01:11:11;;;;;;;30.40;16.30;;;;;;;0.56;81.02;98479.27;109036;1277;23223;-57
2022/02/03 01:13:48;;;;;;;29.20;15.50;;;;;;;0.60;81.08;98480.55;109207;1276;22442;-58
2022/02/03 01:43:18;;;;;;;33.40;16.50;;;;;;;0.59;81.34;98496.27;109091;1276;23119;-59
2022/02/03 01:46:09;;;;;;;29.80;16.50;;;;;;;0.60;81.60;98493.95;109066;1275;138671;-59
2022/02/03 01:48:51;;;;;;;31.30;16.00;;;;;;;0.60;81.32;98495.77;109085;1276;22486;-58
2022/02/03 01:54:06;;;;;;;31.80;16.50;;;;;;;0.61;81.51;98505.33;109197;1276;23163;-58
2022/02/03 01:56:39;;;;;;;27.10;16.70;;;;;;;0.61;81.61;98502.80;109083;1275;138176;-58
2022/02/03 01:59:25;;;;;;;34.70;17.30;;;;;;;0.61;81.41;98501.20;109114;1277;22739;-58
2022/02/03 02:02:01;;;;;;;30.80;18.80;;;;;;;0.62;81.52;98500.91;109066;1277;22536;-58
2022/02/03 02:04:41;;;;;;;35.30;17.30;;;;;;;0.62;81.51;98496.41;109077;1276;138014;-58
2022/02/03 02:07:43;;;;;;;28.00;15.40;;;;;;;0.64;81.72;98494.21;109182;1276;22614;-58
2022/02/03 02:15:05;;;;;;;26.30;16.00;;;;;;;0.66;81.80;98496.34;109026;1276;22479;-58
2022/02/03 02:19:23;;;;;;;28.70;16.60;;;;;;;0.64;81.65;98497.06;109184;1276;22433;-58
2022/02/03 02:39:50;;;;;;;26.70;14.80;;;;;;;0.73;82.11;98501.75;109067;1276;138794;-58
2022/02/03 02:44:59;;;;;;;31.60;16.50;;;;;;;0.74;82.13;98500.96;109137;1275;139119;-59
2022/02/03 02:48:08;;;;;;;35.50;17.60;;;;;;;0.74;82.01;98497.00;109030;1276;22482;-58
2022/02/03 02:50:53;;;;;;;31.60;16.10;;;;;;;0.75;82.38;98492.95;108941;1276;139646;-59
2022/02/03 03:30:27;;;;;;;28.00;15.50;;;;;;;0.80;82.43;98520.06;109226;1274;22470;-58
2022/02/03 03:38:06;;;;;;;23.40;14.10;;;;;;;0.78;82.52;98527.91;109044;1277;22545;-58
2022/02/03 03:40:35;;;;;;;25.10;14.30;;;;;;;0.78;82.48;98532.94;109110;1275;140585;-58
2022/02/03 03:43:05;;;;;;;27.60;14.90;;;;;;;0.77;82.57;98535.30;109001;1277;23500;-58
2022/02/03 03:45:34;;;;;;;33.30;16.40;;;;;;;0.76;82.50;98534.23;109103;1276;137709;-58
2022/02/03 03:48:06;;;;;;;35.70;18.10;;;;;;;0.75;82.55;98532.22;109070;1276;22514;-58
2022/02/03 03:50:36;;;;;;;34.10;18.50;;;;;;;0.74;82.57;98526.65;109230;1276;23249;-58
2022/02/03 03:53:17;;;;;;;29.30;15.70;;;;;;;0.74;82.68;98530.98;109082;1276;138513;-58
2022/02/03 03:56:03;;;;;;;30.40;15.40;;;;;;;0.73;83.00;98537.02;109169;1276;22463;-58
2022/02/03 04:35:26;;;;;;;29.00;17.40;;;;;;;0.71;82.85;98560.10;101738;1308;545804;-58
2022/02/03 04:41:00;;;;;;;28.90;16.70;;;;;;;0.67;83.23;98570.36;103611;1289;136646;-58
2022/02/03 05:03:12;;;;;;;58.70;20.90;;;;;;;0.52;83.23;98584.69;103555;1290;25487;-59
2022/02/03 05:05:32;;;;;;;55.60;20.40;;;;;;;0.51;83.31;98592.65;103293;1290;139371;-59
2022/02/03 05:09:01;;;;;;;64.50;22.20;;;;;;;0.51;83.68;98594.26;103581;1290;25827;-58
2022/02/03 05:12:40;;;;;;;50.40;19.00;;;;;;;0.53;83.92;98600.48;106893;1295;139314;-59
2022/02/03 06:01:40;;;;;;;29.90;16.80;;;;;;;0.61;84.41;98657.31;107948;1287;138398;-59
2022/02/03 06:04:28;;;;;;;29.20;16.70;;;;;;;0.64;84.40;98660.48;108058;1286;22496;-60
2022/02/03 06:15:08;;;;;;;22.10;15.00;;;;;;;0.72;84.78;98670.55;108034;1287;23698;-59
2022/02/03 06:20:41;;;;;;;25.40;15.30;;;;;;;0.73;84.64;98674.23;107764;1287;138133;-59
2022/02/03 06:29:02;;;;;;;22.70;11.90;;;;;;;0.83;84.64;98683.64;107734;1288;139326;-59
2022/02/03 06:31:34;;;;;;;19.00;12.20;;;;;;;0.85;84.84;98688.16;107869;1289;22525;-60
2022/02/03 06:34:02;;;;;;;19.00;12.50;;;;;;;0.87;84.72;98687.75;107982;1288;23258;-59
2022/02/03 06:36:30;;;;;;;22.10;13.60;;;;;;;0.91;84.98;98692.39;107821;1287;138730;-60
2022/02/03 06:38:58;;;;;;;26.70;14.70;;;;;;;0.95;84.97;98693.33;107963;1288;24224;-60
2022/02/03 06:41:27;;;;;;;27.60;13.10;;;;;;;0.97;84.56;98695.80;107894;1287;138326;-60
2022/02/03 06:43:55;;;;;;;23.00;13.60;;;;;;;1.01;84.82;98694.29;108132;1286;22450;-59
2022/02/03 06:46:25;;;;;;;24.50;14.30;;;;;;;1.03;84.95;98695.56;108136;1287;22468;-59
2022/02/03 06:48:54;;;;;;;29.60;16.00;;;;;;;1.04;84.62;98698.24;108050;1286;137309;-60
2022/02/03 06:51:31;;;;;;;34.00;18.40;;;;;;;1.05;84.45;98698.56;108043;1287;22986;-59
2022/02/03 06:54:27;;;;;;;27.30;19.50;;;;;;;1.06;84.49;98698.65;107996;1287;137788;-60
2022/02/03 06:57:01;;;;;;;27.40;18.40;;;;;;;1.08;84.51;98705.78;108093;1287;23227;-59
2022/02/03 06:59:51;;;;;;;28.20;16.70;;;;;;;1.09;84.51;98715.60;108026;1287;138524;-59
2022/02/03 07:02:21;;;;;;;30.70;17.30;;;;;;;1.11;84.51;98716.66;108565;1281;22910;-59
2022/02/03 07:04:49;;;;;;;35.80;18.60;;;;;;;1.13;84.41;98717.27;108656;1281;138707;-59
2022/02/03 07:07:18;;;;;;;47.10;22.80;;;;;;;1.14;84.48;98719.90;108628;1281;22425;-59
2022/02/03 07:09:50;;;;;;;33.60;19.20;;;;;;;1.17;84.45;98725.80;108737;1281;22492;-59
2022/02/03 07:12:20;;;;;;;36.60;17.70;;;;;;;1.19;84.48;98727.08;108647;1281;137875;-60
2022/02/03 07:14:48;;;;;;;35.30;18.70;;;;;;;1.23;84.45;98732.25;108771;1281;22481;-60
2022/02/03 07:17:16;;;;;;;36.20;20.00;;;;;;;1.27;84.42;98735.30;108589;1281;139839;-60
2022/02/03 07:19:48;;;;;;;38.80;21.50;;;;;;;1.31;84.30;98738.21;108710;1281;22446;-59
2022/02/03 07:22:16;;;;;;;38.70;21.20;;;;;;;1.35;84.26;98735.71;108561;1281;22549;-59
2022/02/03 07:24:51;;;;;;;31.30;18.10;;;;;;;1.38;84.28;98741.47;108611;1281;139154;-59
2022/02/03 07:27:20;;;;;;;41.10;20.50;;;;;;;1.41;84.20;98748.93;108723;1281;22592;-59
2022/02/03 07:29:49;;;;;;;43.80;22.70;;;;;;;1.44;84.34;98752.18;108504;1281;138157;-59
2022/02/03 07:32:18;;;;;;;46.60;22.50;;;;;;;1.46;84.13;98757.96;108764;1281;22621;-59
2022/02/03 07:34:46;;;;;;;33.70;20.10;;;;;;;1.47;84.35;98750.23;108514;1281;139064;-59
2022/02/03 07:37:13;;;;;;;63.00;28.60;;;;;;;1.48;84.09;98753.70;108743;1280;22549;-59
2022/02/03 07:39:42;;;;;;;36.80;20.30;;;;;;;1.49;84.03;98756.09;108619;1281;22447;-59
2022/02/03 07:42:10;;;;;;;35.00;20.00;;;;;;;1.50;83.89;98754.96;108628;1281;142185;-59
2022/02/03 07:44:38;;;;;;;49.40;25.10;;;;;;;1.52;83.88;98760.27;108712;1281;22656;-59
2022/02/03 07:47:06;;;;;;;37.80;19.60;;;;;;;1.53;83.71;98763.90;108637;1281;139828;-59
2022/02/03 07:49:34;;;;;;;42.90;20.30;;;;;;;1.54;83.75;98767.04;108718;1281;22563;-59
2022/02/03 07:52:04;;;;;;;37.70;19.60;;;;;;;1.56;83.82;98768.68;108610;1281;22505;-59
2022/02/03 07:54:32;;;;;;;32.40;18.10;;;;;;;1.59;83.58;98770.13;108509;1281;139363;-59
2022/02/03 07:57:08;;;;;;;29.10;14.50;;;;;;;1.59;83.69;98772.48;108756;1281;22485;-59
2022/02/03 07:59:37;;;;;;;37.30;18.60;;;;;;;1.59;83.84;98775.00;108594;1281;138291;-60
2022/02/03 08:02:05;;;;;;;38.90;20.70;;;;;;;1.59;83.81;98775.38;108796;1280;22498;-59
2022/02/03 08:04:38;;;;;;;35.10;20.50;;;;;;;1.58;83.78;98781.14;108777;1281;22555;-59
2022/02/03 08:07:06;;;;;;;34.60;19.40;;;;;;;1.56;83.88;98784.17;108592;1280;137993;-59
2022/02/03 08:09:48;;;;;;;34.00;19.20;;;;;;;1.55;83.97;98787.81;108706;1281;22496;-59
2022/02/03 08:12:18;;;;;;;28.00;16.60;;;;;;;1.54;83.82;98786.83;108629;1281;139909;-59
2022/02/03 08:14:49;;;;;;;21.80;12.90;;;;;;;1.52;83.99;98788.69;108732;1281;22482;-59
2022/02/03 08:17:24;;;;;;;16.90;11.30;;;;;;;1.51;84.07;98788.41;108649;1281;138059;-59
2022/02/03 08:22:28;;;;;;;17.90;12.10;;;;;;;1.48;84.02;98792.89;108772;1281;22556;-59
2022/02/03 08:32:35;;;;;;;13.80;9.80;;;;;;;1.41;84.40;98799.44;108733;1281;22425;-59
2022/02/03 08:37:44;;;;;;;12.60;8.80;;;;;;;1.34;84.65;98808.21;108730;1280;22554;-58
2022/02/03 08:40:28;;;;;;;14.80;8.30;;;;;;;1.29;85.71;98812.96;106810;1280;24241;-58
2022/02/03 08:42:56;;;;;;;10.80;7.20;;;;;;;1.23;86.50;98814.56;104349;1281;138738;-58
2022/02/03 08:45:24;;;;;;;11.00;6.90;;;;;;;1.18;87.00;98821.89;104459;1281;24956;-58
2022/02/03 08:47:52;;;;;;;9.50;5.70;;;;;;;1.07;87.05;98815.31;108574;1281;139509;-59
2022/02/03 08:50:22;;;;;;;9.40;6.00;;;;;;;1.04;87.34;98824.15;108724;1280;22668;-59
2022/02/03 08:53:11;;;;;;;9.00;6.90;;;;;;;1.00;87.52;98828.90;108552;1281;139044;-59
2022/02/03 09:39:13;;;;;;;10.90;8.40;;;;;;;0.73;88.70;98877.50;109141;1277;22392;-59
2022/02/03 09:50:53;;;;;;;9.80;7.00;;;;;;;0.64;87.03;98885.10;109130;1277;23810;-58
2022/02/03 09:56:15;;;;;;;13.30;6.50;;;;;;;0.55;85.91;98891.89;109061;1277;22529;-57
2022/02/03 09:59:05;;;;;;;10.70;7.70;;;;;;;0.50;85.58;98894.00;109175;1277;22534;-57
2022/02/03 10:01:40;;;;;;;12.60;7.80;;;;;;;0.49;85.59;98898.83;109143;1277;23257;-58
2022/02/03 10:04:16;;;;;;;9.50;6.80;;;;;;;0.51;85.45;98907.31;109104;1277;22461;-58
2022/02/03 10:06:58;;;;;;;11.10;7.20;;;;;;;0.50;85.25;98910.08;109013;1277;139845;-58
2022/02/03 10:09:40;;;;;;;12.00;7.90;;;;;;;0.50;85.23;98916.71;109002;1278;22431;-57
2022/02/03 10:12:08;;;;;;;13.10;8.50;;;;;;;0.48;84.67;98917.66;108997;1277;138222;-58
2022/02/03 10:14:56;;;;;;;13.30;7.30;;;;;;;0.44;84.04;98921.67;109059;1277;22494;-58
2022/02/03 10:17:43;;;;;;;11.80;7.70;;;;;;;0.37;83.37;98924.60;108987;1277;139265;-58
2022/02/03 10:20:14;;;;;;;11.70;6.90;;;;;;;0.30;83.20;98926.41;109174;1277;23281;-58
2022/02/03 10:22:46;;;;;;;12.50;8.00;;;;;;;0.25;83.02;98931.21;108925;1278;23721;-58
2022/02/03 10:25:24;;;;;;;11.60;7.70;;;;;;;0.20;83.16;98919.86;108978;1277;138038;-58
2022/02/03 10:27:59;;;;;;;13.40;7.80;;;;;;;0.17;82.76;98934.52;109191;1277;23258;-58
2022/02/03 10:30:35;;;;;;;14.50;9.20;;;;;;;0.13;82.58;98939.13;108903;1279;137860;-58
2022/02/03 10:33:03;;;;;;;11.10;7.70;;;;;;;0.08;82.70;98941.75;109097;1277;22461;-58
2022/02/03 10:35:58;;;;;;;14.20;8.70;;;;;;;0.06;82.51;98949.48;109063;1277;137989;-58
2022/02/03 10:49:33;;;;;;;14.70;8.20;;;;;;;-0.11;82.39;98955.71;108850;1278;139960;-58
2022/02/03 10:54:46;;;;;;;13.50;8.90;;;;;;;-0.21;82.65;98956.54;108986;1277;138715;-58
2022/02/03 11:08:18;;;;;;;17.80;8.40;;;;;;;-0.22;81.99;98973.82;109164;1277;23262;-58
2022/02/03 11:10:51;;;;;;;14.80;9.30;;;;;;;-0.23;82.05;98978.59;108967;1280;23419;-58
2022/02/03 11:13:19;;;;;;;15.20;9.90;;;;;;;-0.24;81.56;98980.23;109020;1277;139923;-58
2022/02/03 11:15:47;;;;;;;15.30;8.90;;;;;;;-0.23;81.59;98983.34;108630;1279;22456;-58
2022/02/03 11:18:15;;;;;;;13.10;8.20;;;;;;;-0.23;81.66;98981.03;108871;1277;139856;-58
2022/02/03 11:20:44;;;;;;;11.90;8.40;;;;;;;-0.24;81.30;98988.81;109070;1277;22412;-59
2022/02/03 11:23:30;;;;;;;14.30;8.00;;;;;;;-0.24;81.83;98993.34;108943;1279;22486;-58
2022/02/03 11:31:58;;;;;;;16.90;9.40;;;;;;;-0.26;81.84;98998.35;108962;1277;125330;-58
2022/02/03 11:53:28;;;;;;;15.10;8.30;;;;;;;-0.57;90.39;99022.40;109031;1277;22507;-62
2022/02/03 12:01:32;;;;;;;15.00;8.70;;;;;;;-0.61;90.67;99025.20;108806;1277;138787;-62
2022/02/03 12:15:45;;;;;;;15.50;8.50;;;;;;;-0.61;88.66;99027.05;108904;1278;22276;-62
2022/02/03 12:18:32;;;;;;;15.80;7.80;;;;;;;-0.63;88.68;99027.82;108955;1277;138788;-62
2022/02/03 12:21:08;;;;;;;15.20;9.40;;;;;;;-0.58;88.96;99038.30;109048;1276;22472;-62
2022/02/03 12:26:32;;;;;;;14.90;10.10;;;;;;;-0.54;88.37;99048.60;108759;1280;138050;-62
2022/02/03 12:29:12;;;;;;;15.90;9.10;;;;;;;-0.58;87.99;99054.70;109080;1277;22501;-62
2022/02/03 12:32:03;;;;;;;16.70;10.70;;;;;;;-0.61;87.73;99063.14;108901;1277;139269;-62
2022/02/03 12:40:01;;;;;;;26.70;11.20;;;;;;;-0.80;88.95;99086.39;107572;1277;22565;-58
2022/02/03 12:42:55;;;;;;;16.80;9.40;;;;;;;-0.83;88.86;99087.85;109021;1277;138320;-58
2022/02/03 12:45:27;;;;;;;19.60;10.90;;;;;;;-0.85;88.79;99088.77;108968;1277;22527;-58
2022/02/03 12:47:58;;;;;;;22.40;11.70;;;;;;;-0.85;88.34;99093.52;108944;1277;140700;-58
2022/02/03 12:50:27;;;;;;;25.30;12.30;;;;;;;-0.87;88.10;99093.18;109061;1277;22488;-58
2022/02/03 12:52:57;;;;;;;23.10;11.50;;;;;;;-0.88;88.33;99093.85;109122;1277;22438;-59
2022/02/03 12:55:36;;;;;;;18.30;10.80;;;;;;;-0.89;88.33;99096.80;108950;1277;138403;-58
2022/02/03 12:58:16;;;;;;;29.00;11.50;;;;;;;-0.88;88.12;99097.49;108939;1277;22591;-58
2022/02/03 13:00:49;;;;;;;19.00;10.70;;;;;;;-0.87;87.18;99105.86;108856;1277;138336;-58
2022/02/03 13:03:37;;;;;;;19.60;12.50;;;;;;;-0.87;86.49;99107.13;109060;1277;22603;-58
2022/02/03 13:06:09;;;;;;;19.90;10.90;;;;;;;-0.88;85.61;99111.12;108839;1278;139430;-58
2022/02/03 13:08:40;;;;;;;19.10;10.40;;;;;;;-0.88;84.94;99112.36;109084;1277;23237;-58
2022/02/03 13:11:21;;;;;;;17.50;9.20;;;;;;;-0.88;84.09;99108.36;109141;1277;22487;-58
2022/02/03 13:16:32;;;;;;;14.30;8.90;;;;;;;-0.89;82.54;99119.42;108961;1277;22468;-58
2022/02/03 13:19:19;;;;;;;16.30;10.10;;;;;;;-0.89;82.13;99119.37;108974;1277;137592;-58
2022/02/03 13:24:30;;;;;;;17.20;10.60;;;;;;;-0.95;80.40;99123.08;108893;1277;138593;-58
2022/02/03 13:27:02;;;;;;;17.30;10.60;;;;;;;-0.94;79.98;99120.29;108902;1279;23656;-58
2022/02/03 13:29:51;;;;;;;16.90;9.50;;;;;;;-0.92;80.11;99133.02;108909;1277;22503;-58
2022/02/03 13:32:24;;;;;;;14.40;9.20;;;;;;;-0.92;79.54;99133.38;108934;1277;138415;-58
2022/02/03 13:35:05;;;;;;;14.70;9.00;;;;;;;-0.93;79.06;99142.84;108967;1277;22258;-58
2022/02/03 13:37:42;;;;;;;17.00;10.40;;;;;;;-0.95;79.25;99146.23;108950;1277;138794;-58
2022/02/03 13:40:18;;;;;;;16.70;10.40;;;;;;;-0.97;79.41;99139.95;109123;1277;22584;-58
2022/02/03 13:42:52;;;;;;;16.20;10.40;;;;;;;-1.01;78.46;99148.77;108613;1277;138225;-58
2022/02/03 13:45:20;;;;;;;18.60;10.90;;;;;;;-1.12;78.29;99143.01;108935;1279;23437;-58
2022/02/03 13:47:49;;;;;;;15.80;9.20;;;;;;;-1.15;78.37;99150.77;108818;1279;138116;-58
2022/02/03 13:50:24;;;;;;;24.60;12.60;;;;;;;-1.20;78.46;99146.26;108834;1280;22453;-58
2022/02/03 13:52:59;;;;;;;16.90;9.80;;;;;;;-1.23;78.66;99148.54;108782;1278;22454;-58
2022/02/03 14:29:15;;;;;;;;;;;;;;;-1.61;74.69;99196.27;108290;1285;24464;-58
2022/02/03 14:31:46;;;;;;;13.90;7.20;;;;;;;-1.66;75.17;99194.77;108213;1283;125279;-58
2022/02/03 14:34:24;;;;;;;13.80;6.90;;;;;;;-1.70;75.45;99203.96;108357;1283;22478;-58
2022/02/03 14:37:01;;;;;;;13.60;7.80;;;;;;;-1.72;75.66;99204.77;108256;1283;138003;-58
2022/02/03 14:39:51;;;;;;;26.20;13.70;;;;;;;-1.72;76.02;99206.89;108353;1283;22527;-58
2022/02/03 14:42:21;;;;;;;16.70;9.70;;;;;;;-1.71;76.35;99208.14;108166;1282;139285;-58
2022/02/03 14:44:49;;;;;;;26.40;14.10;;;;;;;-1.70;76.70;99215.27;108251;1285;23167;-58
2022/02/03 14:47:20;;;;;;;18.70;10.50;;;;;;;-1.70;77.10;99220.65;108222;1285;23202;-57
2022/02/03 14:49:48;;;;;;;18.30;9.90;;;;;;;-1.71;77.78;99224.89;108235;1283;137937;-58
2022/02/03 14:52:27;;;;;;;19.10;10.60;;;;;;;-1.72;77.93;99230.14;108305;1283;22739;-59
2022/02/03 15:00:49;;;;;;;23.80;11.60;;;;;;;-1.71;78.29;99247.86;107843;1287;138903;-58
2022/02/03 15:03:19;;;;;;;19.30;10.60;;;;;;;-1.70;78.59;99252.69;108043;1287;23261;-58
2022/02/03 15:06:07;;;;;;;20.90;12.90;;;;;;;-1.70;78.67;99255.39;107876;1287;138913;-58
2022/02/03 15:11:25;;;;;;;21.10;12.90;;;;;;;-1.70;79.04;99262.02;107974;1287;22655;-58
2022/02/03 15:13:53;;;;;;;23.60;12.90;;;;;;;-1.70;79.20;99265.38;107875;1287;139134;-58
2022/02/03 15:16:21;;;;;;;27.10;15.00;;;;;;;-1.71;79.44;99263.31;107948;1286;22494;-58
2022/02/03 15:19:09;;;;;;;;;;;;;;;-1.72;79.58;99266.46;107927;1287;139632;-58
2022/02/03 15:21:38;;;;;;;21.90;12.00;;;;;;;-1.75;79.59;99268.34;108112;1287;22483;-58
2022/02/03 15:24:13;;;;;;;23.80;12.30;;;;;;;-1.78;79.31;99271.27;107959;1287;138417;-58
2022/02/03 15:26:41;;;;;;;22.70;12.00;;;;;;;-1.82;79.35;99272.70;108083;1287;22473;-58
2022/02/03 15:29:11;;;;;;;18.90;11.20;;;;;;;-1.88;79.10;99282.58;108097;1287;22489;-58
2022/02/03 15:31:42;;;;;;;23.50;13.70;;;;;;;-1.91;79.23;99286.06;108160;1280;138412;-59
2022/02/03 15:34:29;;;;;;;20.60;12.30;;;;;;;-1.95;79.44;99288.84;108737;1280;23509;-58
2022/02/03 15:37:15;;;;;;;22.10;12.90;;;;;;;-1.98;79.69;99290.27;108639;1280;138616;-58
2022/02/03 15:39:48;;;;;;;24.30;13.50;;;;;;;-2.01;79.77;99286.92;108776;1281;23240;-58
2022/02/03 15:42:19;;;;;;;22.00;11.20;;;;;;;-2.04;79.77;99288.39;108513;1280;139929;-58
2022/02/03 15:44:51;;;;;;;17.60;9.80;;;;;;;-2.09;79.51;99291.75;108716;1280;22476;-58
2022/02/03 15:47:31;;;;;;;18.80;9.70;;;;;;;-2.15;79.08;99296.67;108754;1281;22474;-58
2022/02/03 16:03:46;;;;;;;18.60;9.50;;;;;;;-2.34;78.20;99336.70;108717;1281;22447;-58
2022/02/03 16:17:21;;;;;;;17.40;7.50;;;;;;;-2.45;76.84;99346.98;108749;1279;23304;-58
2022/02/03 16:24:53;;;;;;;11.10;7.10;;;;;;;-2.50;76.71;99353.54;108750;1279;138346;-58
2022/02/03 16:51:34;;;;;;;13.00;8.60;;;;;;;-2.74;75.94;99389.48;101571;1309;545368;-58
2022/02/03 16:54:07;;;;;;;13.40;8.00;;;;;;;-2.79;75.68;99395.48;103860;1284;138930;-57
2022/02/03 16:56:35;;;;;;;11.00;6.70;;;;;;;-2.82;75.29;99402.40;103608;1288;24458;-57
2022/02/03 16:59:08;;;;;;;11.20;6.50;;;;;;;-2.86;75.36;99408.85;103651;1287;22646;-59
2022/02/03 17:01:37;;;;;;;9.40;5.60;;;;;;;-2.89;74.83;99412.23;103638;1288;138404;-58
2022/02/03 17:04:05;;;;;;;20.50;10.50;;;;;;;-2.94;74.16;99417.79;103630;1286;142868;-58
2022/02/03 17:06:33;;;;;;;18.70;7.40;;;;;;;-3.00;74.38;99423.18;103813;1283;137335;-58
2022/02/03 17:09:01;;;;;;;13.60;8.60;;;;;;;-3.05;74.29;99424.63;104014;1284;24287;-58
2022/02/03 17:11:31;;;;;;;14.40;8.50;;;;;;;-3.08;74.11;99431.55;103976;1284;24307;-58
2022/02/03 17:13:59;;;;;;;15.10;8.30;;;;;;;-3.12;74.22;99436.09;103863;1284;153007;-57
2022/02/03 17:16:28;;;;;;;12.70;8.40;;;;;;;-3.15;74.14;99442.39;108336;1283;23331;-57
2022/02/03 17:18:57;;;;;;;13.90;7.50;;;;;;;-3.17;74.05;99438.08;108275;1283;137578;-58
2022/02/03 17:21:33;;;;;;;13.60;7.40;;;;;;;-3.19;74.03;99440.80;108412;1283;22423;-58
2022/02/03 17:24:02;;;;;;;11.00;6.20;;;;;;;-3.22;73.33;99434.87;108255;1283;138405;-58
2022/02/03 17:26:42;;;;;;;10.60;6.00;;;;;;;-3.25;73.14;99435.04;108362;1283;22428;-58
2022/02/03 17:29:17;;;;;;;12.60;6.50;;;;;;;-3.27;73.08;99431.17;108096;1286;22482;-58
2022/02/03 18:07:52;;;;;;;9.30;5.80;;;;;;;-3.32;70.86;99439.86;108264;1282;138998;-62
2022/02/03 18:10:25;;;;;;;9.90;5.60;;;;;;;-3.34;70.49;99439.77;108304;1282;22555;-62
2022/02/03 18:53:28;;;;;;;9.70;6.40;;;;;;;-3.32;70.21;99457.55;109049;1277;22443;-58
2022/02/03 18:56:08;;;;;;;11.90;6.80;;;;;;;-3.33;70.13;99457.76;108931;1277;137035;-58
2022/02/03 19:09:45;;;;;;;8.90;4.60;;;;;;;-3.43;69.35;99448.44;109097;1277;23339;-58
2022/02/03 19:29:07;;;;;;;8.70;5.70;;;;;;;-3.36;69.71;99461.98;109024;1277;22427;-58
2022/02/03 20:02:53;;;;;;;9.60;4.10;;;;;;;-3.40;68.48;99463.06;108922;1277;137373;-59
2022/02/03 20:04:47;;;;;;;7.90;4.30;;;;;;;-3.37;67.81;99470.68;108861;1277;23656;-60
2022/02/03 20:07:22;;;;;;;9.00;4.60;;;;;;;-3.39;67.67;99469.48;108912;1277;137588;-60
2022/02/03 20:12:18;;;;;;;9.20;5.20;;;;;;;-3.44;67.28;99466.09;108870;1277;137907;-60
2022/02/03 20:14:49;;;;;;;8.70;3.90;;;;;;;-3.45;67.62;99466.21;108970;1277;22409;-60
2022/02/03 20:17:19;;;;;;;10.80;4.70;;;;;;;-3.46;67.50;99467.27;109076;1275;22438;-60
2022/02/03 20:19:47;;;;;;;11.30;5.10;;;;;;;-3.47;67.56;99467.45;109044;1277;138031;-61
2022/02/03 20:22:18;;;;;;;8.10;4.70;;;;;;;-3.51;67.28;99466.55;109192;1276;23164;-61
2022/02/03 20:24:47;;;;;;;14.60;9.70;;;;;;;-3.57;66.88;99452.84;108987;1277;137238;-60
2022/02/03 20:27:16;;;;;;;9.00;5.60;;;;;;;-3.59;66.89;99455.66;109152;1277;22269;-60
2022/02/03 20:29:44;;;;;;;7.20;4.60;;;;;;;-3.61;67.12;99452.19;109051;1277;22427;-60
2022/02/03 20:32:12;;;;;;;6.70;3.80;;;;;;;-3.63;66.93;99447.47;108930;1277;138457;-60
2022/02/03 20:34:40;;;;;;;10.10;4.10;;;;;;;-3.64;67.30;99445.67;109144;1276;22563;-60
2022/02/03 20:37:08;;;;;;;8.30;4.10;;;;;;;-3.65;67.13;99443.41;108918;1277;137759;-60
2022/02/03 20:39:36;;;;;;;7.10;4.40;;;;;;;-3.69;67.18;99436.92;109105;1275;22575;-60
2022/02/03 20:42:04;;;;;;;7.30;4.40;;;;;;;-3.68;67.45;99441.84;108990;1277;138849;-60
2022/02/03 20:44:32;;;;;;;8.30;4.80;;;;;;;-3.69;67.18;99440.02;109119;1277;22505;-61
2022/02/03 20:47:00;;;;;;;10.70;5.20;;;;;;;-3.71;67.22;99434.45;109150;1277;23461;-60
2022/02/03 20:49:28;;;;;;;10.70;4.10;;;;;;;-3.72;66.72;99437.98;108972;1277;139813;-60
2022/02/03 20:51:57;;;;;;;7.40;3.90;;;;;;;-3.72;66.74;99441.37;109102;1277;22575;-60
2022/02/03 20:54:25;;;;;;;8.30;4.40;;;;;;;-3.73;66.67;99443.38;109072;1276;137145;-60
2022/02/03 20:56:52;;;;;;;11.10;4.80;;;;;;;-3.74;66.83;99449.36;109159;1277;22451;-59
2022/02/03 20:59:27;;;;;;;11.00;4.30;;;;;;;-3.74;66.76;99450.26;109129;1277;22334;-60
2022/02/03 21:01:57;;;;;;;8.60;5.30;;;;;;;-3.73;67.17;99452.25;109105;1277;138358;-59
2022/02/03 21:04:56;;;;;;;9.90;4.90;;;;;;;-3.70;67.26;99450.05;109192;1277;23450;-60
2022/02/03 21:07:22;;;;;;;8.50;4.50;;;;;;;-3.70;66.73;99455.16;109042;1277;138284;-59
2022/02/03 21:09:50;;;;;;;8.70;5.00;;;;;;;-3.73;66.74;99459.71;109080;1277;22461;-59
2022/02/03 21:12:18;;;;;;;10.10;5.70;;;;;;;-3.74;66.81;99459.74;109091;1277;137392;-59
2022/02/03 21:14:53;;;;;;;9.50;5.00;;;;;;;-3.76;66.91;99458.67;109200;1275;22555;-60
2022/02/03 21:17:27;;;;;;;8.60;5.20;;;;;;;-3.77;67.09;99458.80;109088;1277;22478;-60
2022/02/03 21:20:04;;;;;;;7.30;4.10;;;;;;;-3.80;66.55;99456.23;109044;1277;137665;-60
2022/02/03 21:22:32;;;;;;;9.00;5.00;;;;;;;-3.82;66.81;99459.16;109139;1276;22553;-60
2022/02/03 21:25:03;;;;;;;8.60;5.10;;;;;;;-3.83;67.08;99459.48;108964;1277;139094;-60
2022/02/03 21:27:33;;;;;;;9.00;5.30;;;;;;;-3.84;66.97;99461.89;109149;1277;22462;-60
2022/02/03 21:30:06;;;;;;;13.20;5.20;;;;;;;-3.86;67.03;99458.76;108909;1277;138339;-59
2022/02/03 21:32:34;;;;;;;18.30;7.50;;;;;;;-3.88;66.82;99462.64;109085;1277;22495;-60
2022/02/03 21:35:04;;;;;;;9.00;5.20;;;;;;;-3.90;66.69;99463.10;109118;1276;22437;-60
2022/02/03 21:37:33;;;;;;;7.10;4.70;;;;;;;-3.93;66.76;99466.92;108927;1277;138947;-60
2022/02/03 21:40:01;;;;;;;9.40;5.00;;;;;;;-3.95;66.64;99468.39;109124;1277;23733;-56
2022/02/03 21:42:29;;;;;;;8.50;4.50;;;;;;;-3.98;66.86;99467.62;109096;1277;138275;-56
2022/02/03 21:44:57;;;;;;;5.40;4.00;;;;;;;-3.98;66.85;99466.25;109096;1277;22630;-56
2022/02/03 21:47:25;;;;;;;6.60;4.30;;;;;;;-3.99;66.95;99459.00;109117;1277;22450;-56
2022/02/03 21:49:53;;;;;;;9.50;4.80;;;;;;;-4.01;66.98;99465.31;108875;1277;137496;-56
2022/02/03 21:52:22;;;;;;;8.90;4.50;;;;;;;-4.03;67.08;99472.50;109101;1277;22511;-56
2022/02/03 21:54:50;;;;;;;9.80;4.80;;;;;;;-4.07;67.31;99474.84;108998;1277;137823;-56
2022/02/03 21:57:18;;;;;;;8.00;4.80;;;;;;;-4.09;67.41;99475.20;109138;1277;22417;-56
2022/02/03 21:59:46;;;;;;;11.10;5.10;;;;;;;-4.14;67.71;99469.54;109098;1277;23465;-56
2022/02/03 22:02:14;;;;;;;12.50;5.70;;;;;;;-4.14;67.86;99473.83;109026;1276;139205;-56
2022/02/03 22:04:42;;;;;;;10.10;5.30;;;;;;;-4.17;68.04;99476.44;109093;1277;23373;-56
2022/02/03 22:07:10;;;;;;;7.90;4.80;;;;;;;-4.20;67.91;99478.30;109029;1277;137447;-56
2022/02/03 22:09:39;;;;;;;10.60;5.10;;;;;;;-4.26;68.00;99483.48;109098;1277;22475;-56
2022/02/03 22:12:08;;;;;;;7.10;4.40;;;;;;;-4.38;68.22;99477.83;109002;1277;138712;-56
2022/02/03 22:14:36;;;;;;;7.10;4.40;;;;;;;-4.37;68.54;99486.11;109095;1277;22639;-56
2022/02/03 22:17:06;;;;;;;9.80;5.30;;;;;;;-4.42;68.47;99490.67;109191;1277;23562;-56
2022/02/03 22:19:36;;;;;;;9.30;5.00;;;;;;;-4.46;68.78;99486.64;109003;1277;139652;-56
2022/02/03 22:25:00;;;;;;;12.10;5.40;;;;;;;-4.47;69.27;99479.67;109063;1276;138257;-57